createdAt,value
2018-05-31T00:02:05.497Z,15.13
2018-05-31T00:04:33.045Z,15.33
2018-05-31T00:07:00.588Z,15.23
2018-05-31T00:09:28.776Z,15.27
2018-05-31T00:11:56.457Z,15.00
2018-05-31T00:14:24.031Z,14.00
2018-05-31T00:16:52.262Z,14.17
2018-05-31T00:19:19.827Z,14.20
2018-05-31T00:21:48.267Z,14.37
2018-05-31T00:24:15.813Z,13.40
2018-05-31T00:26:43.329Z,14.10
2018-05-31T00:29:10.928Z,15.00
2018-05-31T00:31:38.794Z,15.00
2018-05-31T00:34:06.840Z,14.13
2018-05-31T00:36:34.448Z,14.00
2018-05-31T00:39:02.922Z,14.20
2018-05-31T00:41:30.491Z,14.30
2018-05-31T00:43:58.027Z,14.60
2018-05-31T00:46:25.577Z,15.10
2018-05-31T00:48:53.454Z,14.60
2018-05-31T00:51:21.130Z,15.23
2018-05-31T00:53:48.735Z,13.60
2018-05-31T00:56:17.174Z,13.93
2018-05-31T00:58:45.348Z,13.70
2018-05-31T01:01:12.887Z,13.87
2018-05-31T01:03:40.602Z,14.43
2018-05-31T01:06:08.167Z,14.37
2018-05-31T01:08:35.714Z,14.67
2018-05-31T01:11:03.261Z,14.23
2018-05-31T01:13:30.782Z,14.50
2018-05-31T01:15:58.377Z,13.80
2018-05-31T01:18:25.899Z,14.07
2018-05-31T01:20:53.427Z,13.87
2018-05-31T01:23:21.064Z,13.83
2018-05-31T01:25:48.735Z,14.20
2018-05-31T01:28:16.310Z,13.90
2018-05-31T01:30:43.839Z,13.43
2018-05-31T01:33:11.463Z,13.30
2018-05-31T01:35:39.258Z,13.27
2018-05-31T01:41:05.705Z,14.03
2018-05-31T01:43:33.241Z,13.63
2018-05-31T01:46:00.784Z,13.67
2018-05-31T01:48:28.703Z,14.50
2018-05-31T01:50:56.231Z,14.17
2018-05-31T01:53:23.773Z,13.53
2018-05-31T01:55:51.281Z,14.77
2018-05-31T01:58:18.838Z,14.30
2018-05-31T02:00:46.355Z,13.87
2018-05-31T02:03:13.915Z,13.40
2018-05-31T02:05:41.553Z,14.53
2018-05-31T02:08:09.397Z,14.60
2018-05-31T02:10:36.945Z,14.27
2018-05-31T02:13:04.492Z,14.20
2018-05-31T02:15:32.099Z,13.53
2018-05-31T02:18:00.172Z,14.00
2018-05-31T02:20:27.715Z,14.90
2018-05-31T02:22:55.256Z,14.37
2018-05-31T02:25:22.783Z,13.90
2018-05-31T02:27:50.369Z,15.00
2018-05-31T02:30:17.914Z,14.53
2018-05-31T02:32:45.470Z,14.10
2018-05-31T02:35:13.820Z,14.20
2018-05-31T02:37:41.405Z,14.90
2018-05-31T02:40:09.220Z,14.80
2018-05-31T02:42:36.742Z,14.93
2018-05-31T02:45:04.551Z,14.77
2018-05-31T02:47:32.169Z,14.70
2018-05-31T02:49:59.789Z,15.47
2018-05-31T02:52:27.349Z,14.93
2018-05-31T02:54:54.902Z,15.07
2018-05-31T02:57:22.441Z,15.23
2018-05-31T02:59:50.033Z,15.10
2018-05-31T03:02:17.595Z,15.73
2018-05-31T03:04:45.107Z,15.97
2018-05-31T03:07:12.628Z,16.10
2018-05-31T03:09:40.739Z,14.47
2018-05-31T03:12:08.315Z,16.40
2018-05-31T03:14:35.846Z,15.83
2018-05-31T03:17:03.760Z,15.80
2018-05-31T03:19:31.318Z,15.13
2018-05-31T03:21:58.830Z,15.83
2018-05-31T03:24:26.754Z,15.47
2018-05-31T03:26:54.264Z,15.83
2018-05-31T03:29:22.070Z,16.40
2018-05-31T03:31:49.662Z,15.93
2018-05-31T03:34:17.173Z,15.90
2018-05-31T03:36:44.714Z,15.73
2018-05-31T03:39:12.621Z,15.70
2018-05-31T03:41:40.181Z,16.17
2018-05-31T03:44:07.715Z,15.80
2018-05-31T03:46:35.263Z,15.47
2018-05-31T03:49:03.894Z,15.23
2018-05-31T03:51:31.765Z,15.43
2018-05-31T03:53:59.311Z,15.80
2018-05-31T03:56:27.581Z,15.33
2018-05-31T03:58:55.108Z,15.70
2018-05-31T04:01:22.928Z,16.57
2018-05-31T04:03:50.536Z,16.87
2018-05-31T04:06:18.084Z,16.13
2018-05-31T04:08:45.630Z,16.10
2018-05-31T04:11:13.461Z,16.50
2018-05-31T04:13:41.015Z,15.63
2018-05-31T04:16:08.565Z,16.83
2018-05-31T04:18:36.132Z,16.00
2018-05-31T04:21:03.669Z,16.30
2018-05-31T04:23:31.214Z,17.77
2018-05-31T04:25:58.755Z,16.43
2018-05-31T04:28:26.298Z,17.10
2018-05-31T04:30:54.062Z,16.20
2018-05-31T04:33:21.593Z,17.27
2018-05-31T04:35:49.395Z,16.73
2018-05-31T04:38:17.295Z,16.67
2018-05-31T04:40:44.831Z,17.90
2018-05-31T04:43:12.371Z,17.20
2018-05-31T04:45:39.913Z,17.20
2018-05-31T04:48:07.719Z,17.23
2018-05-31T04:50:35.301Z,16.37
2018-05-31T04:53:03.087Z,17.30
2018-05-31T04:55:30.707Z,18.10
2018-05-31T04:57:58.264Z,17.80
2018-05-31T05:00:26.498Z,16.90
2018-05-31T05:02:54.398Z,18.43
2018-05-31T05:05:23.801Z,19.73
2018-05-31T05:07:51.347Z,19.43
2018-05-31T05:10:18.939Z,21.30
2018-05-31T05:12:46.470Z,30.40
2018-05-31T05:15:14.026Z,18.20
2018-05-31T05:17:41.557Z,17.87
2018-05-31T05:20:09.082Z,25.13
2018-05-31T05:22:36.609Z,19.80
2018-05-31T05:25:04.130Z,20.30
2018-05-31T05:27:31.683Z,19.03
2018-05-31T05:30:00.015Z,20.70
2018-05-31T05:32:27.639Z,34.53
2018-05-31T05:34:55.450Z,25.23
2018-05-31T05:37:22.985Z,19.53
2018-05-31T05:39:50.517Z,19.10
2018-05-31T05:42:18.036Z,18.50
2018-05-31T05:44:45.568Z,17.80
2018-05-31T05:47:13.129Z,16.93
2018-05-31T05:49:40.677Z,18.47
2018-05-31T05:52:08.215Z,18.77
2018-05-31T05:54:35.733Z,17.47
2018-05-31T05:57:03.279Z,17.70
2018-05-31T05:59:30.825Z,17.33
2018-05-31T06:01:58.361Z,17.87
2018-05-31T06:04:25.991Z,17.70
2018-05-31T06:06:53.618Z,18.57
2018-05-31T06:09:21.317Z,18.37
2018-05-31T06:11:49.204Z,18.90
2018-05-31T06:14:16.771Z,18.57
2018-05-31T06:16:44.339Z,18.17
2018-05-31T06:19:13.293Z,17.77
2018-05-31T06:21:40.975Z,17.83
2018-05-31T06:24:08.609Z,18.57
2018-05-31T06:26:36.149Z,18.27
2018-05-31T06:29:03.697Z,18.10
2018-05-31T06:31:31.593Z,16.67
2018-05-31T06:33:59.190Z,16.77
2018-05-31T06:36:26.726Z,16.50
2018-05-31T06:38:54.234Z,17.63
2018-05-31T06:41:21.977Z,18.23
2018-05-31T06:43:49.481Z,16.00
2018-05-31T06:46:17.280Z,17.50
2018-05-31T06:48:44.811Z,15.53
2018-05-31T06:51:12.345Z,17.00
2018-05-31T06:53:39.947Z,16.33
2018-05-31T06:56:07.503Z,16.53
2018-05-31T06:58:35.278Z,16.43
2018-05-31T07:01:02.828Z,18.53
2018-05-31T07:03:30.354Z,14.73
2018-05-31T07:05:57.927Z,16.77
2018-05-31T07:08:25.440Z,16.00
2018-05-31T07:10:53.072Z,14.70
2018-05-31T07:13:20.738Z,15.50
2018-05-31T07:15:49.488Z,15.17
2018-05-31T07:18:17.033Z,14.03
2018-05-31T07:20:44.555Z,13.87
2018-05-31T07:23:12.540Z,14.43
2018-05-31T07:25:40.100Z,15.20
2018-05-31T07:28:07.638Z,13.87
2018-05-31T07:30:35.166Z,13.50
2018-05-31T07:33:02.703Z,14.13
2018-05-31T07:35:30.541Z,16.50
2018-05-31T07:37:58.074Z,13.77
2018-05-31T07:40:25.581Z,14.70
2018-05-31T07:42:53.119Z,14.77
2018-05-31T07:45:20.650Z,13.60
2018-05-31T07:47:48.182Z,13.90
2018-05-31T07:50:16.003Z,13.80
2018-05-31T07:52:43.534Z,14.33
2018-05-31T07:55:11.049Z,13.80
2018-05-31T07:57:38.552Z,13.57
2018-05-31T08:00:06.345Z,13.90
2018-05-31T08:02:33.901Z,13.73
2018-05-31T08:05:01.534Z,14.23
2018-05-31T08:07:29.156Z,13.77
2018-05-31T08:09:56.693Z,15.03
2018-05-31T08:12:24.210Z,13.80
2018-05-31T08:14:51.886Z,13.50
2018-05-31T08:17:19.404Z,13.77
2018-05-31T08:19:46.974Z,13.57
2018-05-31T08:22:14.487Z,13.10
2018-05-31T08:24:42.019Z,13.57
2018-05-31T08:27:09.567Z,13.13
2018-05-31T08:29:37.125Z,13.30
2018-05-31T08:32:04.653Z,20.47
2018-05-31T08:34:32.181Z,13.27
2018-05-31T08:36:59.958Z,17.87
2018-05-31T08:39:27.500Z,12.67
2018-05-31T08:41:55.001Z,12.83
2018-05-31T08:44:22.610Z,12.50
2018-05-31T08:46:50.137Z,21.40
2018-05-31T08:49:17.697Z,13.50
2018-05-31T08:51:45.634Z,12.27
2018-05-31T08:54:13.147Z,13.13
2018-05-31T08:56:40.656Z,12.90
2018-05-31T08:59:08.191Z,14.00
2018-05-31T09:01:35.751Z,13.60
2018-05-31T09:04:03.264Z,13.03
2018-05-31T09:06:30.795Z,14.00
2018-05-31T09:08:58.320Z,13.73
2018-05-31T09:11:25.833Z,13.27
2018-05-31T09:13:53.397Z,13.87
2018-05-31T09:16:20.904Z,14.30
2018-05-31T09:18:48.510Z,13.97
2018-05-31T09:21:16.051Z,14.30
2018-05-31T09:23:43.577Z,14.23
2018-05-31T09:26:11.069Z,13.93
2018-05-31T09:28:39.027Z,13.63
2018-05-31T09:31:06.461Z,14.20
2018-05-31T09:33:34.266Z,15.03
2018-05-31T09:36:01.827Z,14.70
2018-05-31T09:38:29.351Z,13.40
2018-05-31T09:40:56.860Z,13.20
2018-05-31T09:43:24.394Z,13.53
2018-05-31T09:45:51.928Z,14.00
2018-05-31T09:48:19.437Z,14.67
2018-05-31T09:50:46.978Z,14.90
2018-05-31T09:53:14.491Z,14.67
2018-05-31T09:55:41.995Z,14.90
2018-05-31T09:58:09.608Z,14.77
2018-05-31T10:00:38.140Z,14.20
2018-05-31T10:03:05.688Z,13.30
2018-05-31T10:05:33.225Z,14.20
2018-05-31T10:08:00.752Z,14.47
2018-05-31T10:10:28.430Z,14.37
2018-05-31T10:12:55.934Z,13.40
2018-05-31T10:15:23.544Z,14.13
2018-05-31T10:17:51.175Z,14.60
2018-05-31T10:20:18.693Z,14.33
2018-05-31T10:22:46.281Z,14.00
2018-05-31T10:25:13.810Z,13.77
2018-05-31T10:27:41.352Z,14.17
2018-05-31T10:30:08.952Z,14.00
2018-05-31T10:32:36.419Z,14.30
2018-05-31T10:35:04.429Z,14.60
2018-05-31T10:37:32.009Z,13.57
2018-05-31T10:39:59.525Z,14.67
2018-05-31T10:42:27.147Z,17.40
2018-05-31T10:44:54.665Z,14.30
2018-05-31T10:47:22.174Z,14.20
2018-05-31T10:49:49.971Z,14.50
2018-05-31T10:52:17.480Z,13.97
2018-05-31T10:54:45.037Z,13.70
2018-05-31T10:57:12.590Z,14.00
2018-05-31T10:59:40.101Z,13.03
2018-05-31T11:02:07.772Z,13.43
2018-05-31T11:04:35.320Z,13.57
2018-05-31T11:07:02.838Z,13.63
2018-05-31T11:09:30.360Z,13.30
2018-05-31T11:11:57.949Z,14.70
2018-05-31T11:14:25.477Z,14.13
2018-05-31T11:16:53.071Z,13.43
2018-05-31T11:19:20.580Z,13.70
2018-05-31T11:21:48.124Z,13.20
2018-05-31T11:24:15.926Z,13.67
2018-05-31T11:26:43.425Z,12.60
2018-05-31T11:29:11.159Z,12.50
2018-05-31T11:31:39.019Z,13.47
2018-05-31T11:34:06.532Z,13.10
2018-05-31T11:36:34.346Z,12.67
2018-05-31T11:39:01.856Z,12.50
2018-05-31T11:41:29.605Z,14.30
2018-05-31T11:43:57.120Z,12.53
2018-05-31T11:46:24.643Z,14.43
2018-05-31T11:48:52.169Z,11.70
2018-05-31T11:51:19.703Z,11.50
2018-05-31T11:53:47.292Z,12.80
2018-05-31T11:56:15.369Z,12.57
2018-05-31T11:58:42.892Z,12.40
2018-05-31T12:01:13.457Z,12.53
2018-05-31T12:03:40.999Z,12.50
2018-05-31T12:06:10.563Z,12.33
2018-05-31T12:08:38.148Z,12.40
2018-05-31T12:11:05.696Z,11.73
2018-05-31T12:13:33.321Z,11.68
2018-05-31T12:16:00.881Z,11.07
2018-05-31T12:18:28.435Z,10.82
2018-05-31T12:20:55.948Z,10.48
2018-05-31T12:23:24.579Z,10.90
2018-05-31T12:25:52.226Z,10.18
2018-05-31T12:28:20.704Z,9.68
2018-05-31T12:30:48.283Z,10.43
2018-05-31T12:33:15.868Z,10.02
2018-05-31T12:35:43.651Z,10.60
2018-05-31T12:38:11.457Z,10.40
2018-05-31T12:40:38.986Z,10.45
2018-05-31T12:43:06.940Z,10.55
2018-05-31T12:45:34.541Z,10.55
2018-05-31T12:48:02.077Z,11.23
2018-05-31T12:50:30.642Z,10.40
2018-05-31T12:52:58.146Z,10.80
2018-05-31T12:55:26.053Z,10.88
2018-05-31T12:57:53.575Z,10.43
2018-05-31T13:00:21.341Z,12.15
2018-05-31T13:02:48.882Z,10.60
2018-05-31T13:05:16.530Z,11.12
2018-05-31T13:07:44.073Z,10.95
2018-05-31T13:10:11.619Z,11.88
2018-05-31T13:12:39.141Z,12.60
2018-05-31T13:15:06.698Z,12.00
2018-05-31T13:17:34.222Z,12.57
2018-05-31T13:20:02.145Z,12.45
2018-05-31T13:22:29.714Z,12.27
2018-05-31T13:24:57.254Z,13.15
2018-05-31T13:27:24.832Z,13.30
2018-05-31T13:29:52.466Z,12.40
2018-05-31T13:32:20.028Z,13.10
2018-05-31T13:34:47.552Z,11.90
2018-05-31T13:37:15.113Z,13.82
2018-05-31T13:39:42.638Z,13.05
2018-05-31T13:42:11.958Z,12.37
2018-05-31T13:44:39.649Z,12.50
2018-05-31T13:47:07.228Z,12.70
2018-05-31T13:49:34.828Z,12.40
2018-05-31T13:52:02.383Z,12.43
2018-05-31T13:54:29.911Z,12.73
2018-05-31T13:56:57.439Z,13.03
2018-05-31T13:59:25.002Z,12.90
2018-05-31T14:01:53.024Z,13.00
2018-05-31T14:04:20.886Z,13.67
2018-05-31T14:06:48.501Z,12.40
2018-05-31T14:09:16.059Z,13.13
2018-05-31T14:11:43.699Z,12.65
2018-05-31T14:14:11.314Z,12.68
2018-05-31T14:16:38.915Z,13.38
2018-05-31T14:19:06.440Z,11.80
2018-05-31T14:21:34.023Z,12.82
2018-05-31T14:24:01.550Z,12.40
2018-05-31T14:26:29.091Z,12.45
2018-05-31T14:28:56.627Z,13.20
2018-05-31T14:31:24.161Z,13.17
2018-05-31T14:33:51.936Z,13.17
2018-05-31T14:36:19.480Z,14.27
2018-05-31T14:38:47.013Z,14.30
2018-05-31T14:41:14.535Z,13.67
2018-05-31T14:43:42.105Z,13.13
2018-05-31T14:46:09.696Z,14.50
2018-05-31T14:48:37.309Z,14.70
2018-05-31T14:51:04.868Z,14.60
2018-05-31T14:53:32.391Z,14.07
2018-05-31T14:55:59.989Z,13.37
2018-05-31T14:58:27.521Z,14.43
2018-05-31T15:00:55.051Z,14.43
2018-05-31T15:03:22.586Z,14.70
2018-05-31T15:05:50.147Z,14.67
2018-05-31T15:08:17.773Z,15.80
2018-05-31T15:10:45.289Z,14.53
2018-05-31T15:13:12.926Z,14.10
2018-05-31T15:15:40.447Z,13.80
2018-05-31T15:18:07.967Z,13.77
2018-05-31T15:20:35.507Z,14.03
2018-05-31T15:23:03.047Z,13.93
2018-05-31T15:25:31.321Z,13.80
2018-05-31T15:27:58.844Z,13.13
2018-05-31T15:30:26.488Z,14.37
2018-05-31T15:32:54.025Z,15.27
2018-05-31T15:35:22.560Z,16.33
2018-05-31T15:37:50.087Z,14.00
2018-05-31T15:40:17.648Z,13.77
2018-05-31T15:42:45.237Z,13.67
2018-05-31T15:45:12.743Z,14.17
2018-05-31T15:47:40.293Z,14.83
2018-05-31T15:50:07.834Z,13.90
2018-05-31T15:52:35.377Z,13.97
2018-05-31T15:55:02.900Z,13.60
2018-05-31T15:57:30.465Z,13.57
2018-05-31T15:59:57.981Z,14.00
2018-05-31T16:02:25.496Z,14.53
2018-05-31T16:04:53.305Z,15.50
2018-05-31T16:07:21.115Z,15.30
2018-05-31T16:09:48.626Z,14.70
2018-05-31T16:12:16.178Z,15.17
2018-05-31T16:14:43.770Z,14.80
2018-05-31T16:17:11.295Z,14.70
2018-05-31T16:19:38.852Z,15.20
2018-05-31T16:22:06.399Z,15.83
2018-05-31T16:24:34.038Z,15.07
2018-05-31T16:27:01.739Z,14.50
2018-05-31T16:29:29.259Z,15.17
2018-05-31T16:31:56.771Z,15.70
2018-05-31T16:34:24.319Z,15.70
2018-05-31T16:36:51.996Z,15.87
2018-05-31T16:39:19.544Z,15.40
2018-05-31T16:41:47.289Z,16.27
2018-05-31T16:44:14.804Z,14.83
2018-05-31T16:46:42.884Z,16.37
2018-05-31T16:49:10.787Z,16.13
2018-05-31T16:51:38.333Z,15.57
2018-05-31T16:54:06.169Z,14.80
2018-05-31T16:56:33.702Z,16.27
2018-05-31T16:59:01.394Z,14.73
2018-05-31T17:01:28.893Z,15.03
2018-05-31T17:03:56.442Z,16.20
2018-05-31T17:06:23.955Z,15.47
2018-05-31T17:08:52.041Z,19.10
2018-05-31T17:11:19.578Z,16.83
2018-05-31T17:13:47.473Z,15.40
2018-05-31T17:16:15.063Z,17.07
2018-05-31T17:18:42.603Z,15.93
2018-05-31T17:21:10.119Z,15.73
2018-05-31T17:23:37.637Z,17.83
2018-05-31T17:26:05.197Z,20.40
2018-05-31T17:28:32.840Z,19.50
2018-05-31T17:31:00.361Z,19.33
2018-05-31T17:33:27.897Z,16.80
2018-05-31T17:35:55.749Z,16.70
2018-05-31T17:38:23.534Z,18.57
2018-05-31T17:40:51.118Z,16.43
2018-05-31T17:43:18.669Z,18.03
2018-05-31T17:45:46.191Z,17.17
2018-05-31T17:48:13.786Z,15.57
2018-05-31T17:50:41.308Z,15.40
2018-05-31T17:53:08.809Z,17.07
2018-05-31T17:55:36.377Z,16.70
2018-05-31T17:58:04.526Z,15.47
2018-05-31T18:00:32.083Z,16.07
2018-05-31T18:02:59.685Z,13.90
2018-05-31T18:05:27.465Z,15.00
2018-05-31T18:07:55.036Z,15.23
2018-05-31T18:10:23.430Z,14.70
2018-05-31T18:12:51.161Z,15.17
2018-05-31T18:15:18.663Z,16.80
2018-05-31T18:17:46.206Z,16.77
2018-05-31T18:20:13.776Z,14.50
2018-05-31T18:22:41.300Z,15.50
2018-05-31T18:25:08.856Z,14.10
2018-05-31T18:27:36.356Z,14.73
2018-05-31T18:30:03.896Z,14.50
2018-05-31T18:32:31.471Z,14.33
2018-05-31T18:34:59.032Z,13.60
2018-05-31T18:37:26.785Z,13.90
2018-05-31T18:39:54.355Z,14.57
2018-05-31T18:42:21.954Z,13.97
2018-05-31T18:44:49.478Z,14.90
2018-05-31T18:47:17.036Z,15.10
2018-05-31T18:49:44.895Z,13.63
2018-05-31T18:52:12.392Z,14.47
2018-05-31T18:54:39.999Z,14.50
2018-05-31T18:57:07.567Z,15.00
2018-05-31T18:59:35.065Z,14.90
2018-05-31T19:02:02.597Z,14.00
2018-05-31T19:04:30.135Z,15.00
2018-05-31T19:06:57.692Z,14.80
2018-05-31T19:09:30.712Z,15.90
2018-05-31T19:11:58.254Z,15.47
2018-05-31T19:14:25.854Z,14.93
2018-05-31T19:16:53.395Z,14.77
2018-05-31T19:19:26.888Z,14.33
2018-05-31T19:21:54.559Z,14.70
2018-05-31T19:24:27.757Z,14.53
2018-05-31T19:26:55.285Z,13.93
2018-05-31T19:29:22.849Z,13.33
2018-05-31T19:31:50.412Z,14.27
2018-05-31T19:34:18.286Z,14.47
2018-05-31T19:36:51.406Z,14.70
2018-05-31T19:39:18.994Z,13.90
2018-05-31T19:41:46.517Z,14.63
2018-05-31T19:44:19.478Z,14.03
2018-05-31T19:46:46.997Z,14.87
2018-05-31T19:49:14.610Z,13.90
2018-05-31T19:51:48.140Z,14.40
2018-05-31T19:54:15.896Z,14.47
2018-05-31T19:56:43.420Z,14.00
2018-05-31T19:59:16.696Z,14.40
2018-05-31T20:01:49.810Z,13.90
2018-05-31T20:04:17.378Z,14.30
2018-05-31T20:06:45.012Z,15.17
2018-05-31T20:09:12.587Z,15.07
2018-05-31T20:11:40.161Z,15.67
2018-05-31T20:14:07.697Z,15.20
2018-05-31T20:16:35.314Z,14.23
2018-05-31T20:19:02.849Z,14.73
2018-05-31T20:21:30.628Z,14.00
2018-05-31T20:23:58.144Z,14.50
2018-05-31T20:26:25.866Z,14.50
2018-05-31T20:28:53.388Z,13.50
2018-05-31T20:31:20.924Z,14.23
2018-05-31T20:33:48.730Z,14.57
2018-05-31T20:36:16.389Z,14.77
2018-05-31T20:38:43.935Z,14.00
2018-05-31T20:41:11.516Z,14.00
2018-05-31T20:43:39.060Z,14.83
2018-05-31T20:46:06.584Z,13.70
2018-05-31T20:48:34.239Z,34.67
2018-05-31T20:51:01.755Z,25.70
2018-05-31T20:53:29.513Z,19.10
2018-05-31T20:55:57.151Z,15.33
2018-05-31T20:58:24.686Z,15.77
2018-05-31T21:00:53.010Z,14.80
2018-05-31T21:03:20.541Z,16.30
2018-05-31T21:05:48.119Z,17.77
2018-05-31T21:08:15.652Z,14.80
2018-05-31T21:10:43.313Z,14.60
2018-05-31T21:13:11.132Z,14.67
2018-05-31T21:15:38.892Z,14.17
2018-05-31T21:18:06.452Z,14.13
2018-05-31T21:20:33.966Z,14.03
2018-05-31T21:23:01.496Z,13.90
2018-05-31T21:25:31.671Z,14.30
2018-05-31T21:27:59.230Z,14.30
2018-05-31T21:30:26.742Z,14.83
2018-05-31T21:32:54.297Z,14.57
2018-05-31T21:35:21.828Z,14.10
2018-05-31T21:37:49.433Z,14.40
2018-05-31T21:40:16.986Z,14.60
2018-05-31T21:42:44.524Z,13.97
2018-05-31T21:45:12.051Z,14.47
2018-05-31T21:47:39.617Z,13.93
2018-05-31T21:50:07.162Z,13.83
2018-05-31T21:52:34.684Z,14.17
2018-05-31T21:55:02.235Z,14.60
2018-05-31T21:57:29.754Z,14.77
2018-05-31T21:59:57.261Z,14.70
2018-05-31T22:02:25.115Z,14.50
2018-05-31T22:04:52.621Z,13.50
2018-05-31T22:07:20.126Z,14.03
2018-05-31T22:09:47.720Z,13.97
2018-05-31T22:12:15.260Z,14.97
2018-05-31T22:14:42.841Z,14.00
2018-05-31T22:17:10.367Z,14.30
2018-05-31T22:19:38.133Z,15.30
2018-05-31T22:22:05.668Z,14.77
2018-05-31T22:24:33.219Z,14.30
2018-05-31T22:27:01.124Z,14.70
2018-05-31T22:29:28.728Z,15.10
2018-05-31T22:31:56.278Z,14.57
2018-05-31T22:34:23.785Z,15.17
2018-05-31T22:36:51.294Z,14.40
2018-05-31T22:39:18.845Z,14.40
2018-05-31T22:41:46.346Z,15.60
2018-05-31T22:44:13.877Z,16.57
2018-05-31T22:46:41.469Z,15.33
2018-05-31T22:49:08.985Z,14.23
2018-05-31T22:51:36.516Z,15.53
2018-05-31T22:54:04.178Z,14.83
2018-05-31T22:56:31.685Z,16.20
2018-05-31T22:58:59.220Z,14.67
2018-05-31T23:01:26.761Z,15.37
2018-05-31T23:03:54.287Z,14.90
2018-05-31T23:06:21.824Z,14.73
2018-05-31T23:08:49.391Z,14.87
2018-05-31T23:11:16.929Z,15.03
2018-05-31T23:13:44.441Z,14.60
2018-05-31T23:16:11.966Z,15.20
2018-05-31T23:18:39.745Z,14.80
2018-05-31T23:21:07.352Z,14.43
2018-05-31T23:23:34.881Z,15.17
2018-05-31T23:26:02.568Z,15.13
2018-05-31T23:28:30.078Z,14.73
2018-05-31T23:30:57.712Z,14.90
2018-05-31T23:33:25.258Z,14.60
2018-05-31T23:35:52.826Z,15.87
2018-05-31T23:38:20.343Z,15.33
2018-05-31T23:40:47.853Z,15.47
2018-05-31T23:43:15.393Z,15.50
2018-05-31T23:45:43.186Z,15.33
2018-05-31T23:48:11.069Z,14.50
2018-05-31T23:50:38.590Z,14.00
2018-05-31T23:53:06.093Z,15.30
2018-05-31T23:55:33.633Z,14.80
2018-05-31T23:58:01.481Z,14.40
